CYKD

Aklavik Airport

Aklavik, , Canada
METAR CYKD 231400Z 00000KT 10SM IC SCT037 M15/M17 A2963 RMK SC4 TR/SNW CVR/ONE LOOSE SLP036
Observed Flight Rules
Feb-23 @ 14:00 UTC (40 minutes ago) Visual Flight Rules
Wind Visibility Clouds Conditions
Calm 10 miles
  • Scattered at 3,700' AGL
  • Ice crystals
Temperatures Readings
Current -15°C / 5°F
Dewpoint -17°C / 1°F
Humidity 85%
Altimeter 29.63" Hg
Pressure 1003.6 hPa
Elevation 7
METAR CYKD 231400Z 00000KT 10SM IC SCT037 M15/M17 A2963 RMK SC4 TR/SNW CVR/ONE LOOSE SLP036
Observed Flight Rules
Feb-23 @ 14:00 UTC
(40 minutes ago)
VFR
Wind Visibility
Calm 10 miles
Clouds
  • Scattered at 3,700' AGL
Conditions
  • Ice crystals
Temperature Dewpoint
-15°C / 5°F -17°C / 1°F
Humidity Altimeter Pressure
85% 29.63" Hg 1003.6 hPa